sensor_id;sensor_type;location;lat;lon;timestamp;temperature;humidity
78571;SHT31;67861;51.966;5.672;2024-03-08T00:01:12;7.7;56.4
78571;SHT31;67861;51.966;5.672;2024-03-08T00:03:42;7.7;56.4
78571;SHT31;67861;51.966;5.672;2024-03-08T00:06:11;7.6;56.4
78571;SHT31;67861;51.966;5.672;2024-03-08T00:08:39;7.6;56.5
78571;SHT31;67861;51.966;5.672;2024-03-08T00:11:08;7.6;56.5
78571;SHT31;67861;51.966;5.672;2024-03-08T00:13:36;7.6;56.3
78571;SHT31;67861;51.966;5.672;2024-03-08T00:16:05;7.6;56.5
78571;SHT31;67861;51.966;5.672;2024-03-08T00:18:35;7.5;56.5
78571;SHT31;67861;51.966;5.672;2024-03-08T00:21:04;7.5;56.4
78571;SHT31;67861;51.966;5.672;2024-03-08T00:23:35;7.5;56.3
78571;SHT31;67861;51.966;5.672;2024-03-08T00:26:03;7.5;56.2
78571;SHT31;67861;51.966;5.672;2024-03-08T00:28:33;7.5;56.5
78571;SHT31;67861;51.966;5.672;2024-03-08T00:31:02;7.4;56.2
78571;SHT31;67861;51.966;5.672;2024-03-08T00:33:30;7.4;56.0
78571;SHT31;67861;51.966;5.672;2024-03-08T00:36:00;7.4;56.0
78571;SHT31;67861;51.966;5.672;2024-03-08T00:38:29;7.4;56.0
78571;SHT31;67861;51.966;5.672;2024-03-08T00:40:58;7.4;55.9
78571;SHT31;67861;51.966;5.672;2024-03-08T00:43:26;7.4;56.0
78571;SHT31;67861;51.966;5.672;2024-03-08T00:45:55;7.3;55.7
78571;SHT31;67861;51.966;5.672;2024-03-08T00:48:24;7.3;55.7
78571;SHT31;67861;51.966;5.672;2024-03-08T00:50:52;7.3;56.2
78571;SHT31;67861;51.966;5.672;2024-03-08T00:53:21;7.3;55.9
78571;SHT31;67861;51.966;5.672;2024-03-08T00:55:49;7.3;55.7
78571;SHT31;67861;51.966;5.672;2024-03-08T00:58:18;7.3;55.7
78571;SHT31;67861;51.966;5.672;2024-03-08T01:00:46;7.3;55.3
78571;SHT31;67861;51.966;5.672;2024-03-08T01:03:14;7.2;55.4
78571;SHT31;67861;51.966;5.672;2024-03-08T01:05:43;7.2;55.5
78571;SHT31;67861;51.966;5.672;2024-03-08T01:08:13;7.2;55.4
78571;SHT31;67861;51.966;5.672;2024-03-08T01:10:41;7.2;55.2
78571;SHT31;67861;51.966;5.672;2024-03-08T01:13:09;7.2;55.3
78571;SHT31;67861;51.966;5.672;2024-03-08T01:15:38;7.1;55.2
78571;SHT31;67861;51.966;5.672;2024-03-08T01:18:07;7.1;55.4
78571;SHT31;67861;51.966;5.672;2024-03-08T01:20:36;7.1;55.6
78571;SHT31;67861;51.966;5.672;2024-03-08T01:23:06;7.0;55.6
78571;SHT31;67861;51.966;5.672;2024-03-08T01:25:36;7.0;55.4
78571;SHT31;67861;51.966;5.672;2024-03-08T01:28:05;7.0;55.4
78571;SHT31;67861;51.966;5.672;2024-03-08T01:30:36;6.9;55.5
78571;SHT31;67861;51.966;5.672;2024-03-08T01:33:05;6.9;55.5
78571;SHT31;67861;51.966;5.672;2024-03-08T01:35:34;6.9;55.5
78571;SHT31;67861;51.966;5.672;2024-03-08T01:38:02;6.8;55.6
78571;SHT31;67861;51.966;5.672;2024-03-08T01:40:31;6.8;55.7
78571;SHT31;67861;51.966;5.672;2024-03-08T01:43:16;6.8;55.7
78571;SHT31;67861;51.966;5.672;2024-03-08T01:45:45;6.8;55.7
78571;SHT31;67861;51.966;5.672;2024-03-08T01:48:15;6.8;55.5
78571;SHT31;67861;51.966;5.672;2024-03-08T01:50:44;6.7;55.4
78571;SHT31;67861;51.966;5.672;2024-03-08T01:53:13;6.7;55.5
78571;SHT31;67861;51.966;5.672;2024-03-08T01:55:45;6.7;55.8
78571;SHT31;67861;51.966;5.672;2024-03-08T01:58:15;6.7;55.6
78571;SHT31;67861;51.966;5.672;2024-03-08T02:00:45;6.6;55.4
78571;SHT31;67861;51.966;5.672;2024-03-08T02:03:15;6.6;55.4
78571;SHT31;67861;51.966;5.672;2024-03-08T02:05:44;6.6;55.6
78571;SHT31;67861;51.966;5.672;2024-03-08T02:08:12;6.6;55.5
78571;SHT31;67861;51.966;5.672;2024-03-08T02:10:41;6.6;55.3
78571;SHT31;67861;51.966;5.672;2024-03-08T02:13:11;6.6;55.3
78571;SHT31;67861;51.966;5.672;2024-03-08T02:15:52;6.5;55.5
78571;SHT31;67861;51.966;5.672;2024-03-08T02:18:22;6.5;55.1
78571;SHT31;67861;51.966;5.672;2024-03-08T02:20:51;6.5;55.1
78571;SHT31;67861;51.966;5.672;2024-03-08T02:23:21;6.5;55.2
78571;SHT31;67861;51.966;5.672;2024-03-08T02:25:51;6.5;55.2
78571;SHT31;67861;51.966;5.672;2024-03-08T02:28:20;6.5;55.0
78571;SHT31;67861;51.966;5.672;2024-03-08T02:30:50;6.5;55.0
78571;SHT31;67861;51.966;5.672;2024-03-08T02:33:22;6.4;55.1
78571;SHT31;67861;51.966;5.672;2024-03-08T02:35:51;6.4;54.8
78571;SHT31;67861;51.966;5.672;2024-03-08T02:38:21;6.4;55.2
78571;SHT31;67861;51.966;5.672;2024-03-08T02:40:52;6.4;55.1
78571;SHT31;67861;51.966;5.672;2024-03-08T02:43:22;6.4;54.9
78571;SHT31;67861;51.966;5.672;2024-03-08T02:45:51;6.4;55.1
78571;SHT31;67861;51.966;5.672;2024-03-08T02:48:21;6.4;55.3
78571;SHT31;67861;51.966;5.672;2024-03-08T02:50:50;6.4;55.1
78571;SHT31;67861;51.966;5.672;2024-03-08T02:53:20;6.4;55.0
78571;SHT31;67861;51.966;5.672;2024-03-08T02:55:48;6.3;54.9
78571;SHT31;67861;51.966;5.672;2024-03-08T02:58:17;6.3;55.0
78571;SHT31;67861;51.966;5.672;2024-03-08T03:00:45;6.3;55.0
78571;SHT31;67861;51.966;5.672;2024-03-08T03:03:13;6.3;55.0
78571;SHT31;67861;51.966;5.672;2024-03-08T03:05:42;6.3;55.2
78571;SHT31;67861;51.966;5.672;2024-03-08T03:08:11;6.3;55.0
78571;SHT31;67861;51.966;5.672;2024-03-08T03:10:39;6.2;55.0
78571;SHT31;67861;51.966;5.672;2024-03-08T03:13:08;6.2;55.0
78571;SHT31;67861;51.966;5.672;2024-03-08T03:15:36;6.2;55.3
78571;SHT31;67861;51.966;5.672;2024-03-08T03:18:05;6.2;55.5
78571;SHT31;67861;51.966;5.672;2024-03-08T03:20:34;6.2;55.4
78571;SHT31;67861;51.966;5.672;2024-03-08T03:23:06;6.1;55.7
78571;SHT31;67861;51.966;5.672;2024-03-08T03:25:40;6.1;55.6
78571;SHT31;67861;51.966;5.672;2024-03-08T03:28:08;6.1;55.7
78571;SHT31;67861;51.966;5.672;2024-03-08T03:30:42;6.1;55.7
78571;SHT31;67861;51.966;5.672;2024-03-08T03:33:12;6.1;55.9
78571;SHT31;67861;51.966;5.672;2024-03-08T03:35:42;6.0;55.7
78571;SHT31;67861;51.966;5.672;2024-03-08T03:38:12;6.0;56.0
78571;SHT31;67861;51.966;5.672;2024-03-08T03:40:40;6.0;56.0
78571;SHT31;67861;51.966;5.672;2024-03-08T03:43:11;6.0;56.0
78571;SHT31;67861;51.966;5.672;2024-03-08T03:45:41;6.0;56.1
78571;SHT31;67861;51.966;5.672;2024-03-08T03:48:11;6.0;56.2
78571;SHT31;67861;51.966;5.672;2024-03-08T03:50:40;6.0;56.2
78571;SHT31;67861;51.966;5.672;2024-03-08T03:53:08;6.0;56.2
78571;SHT31;67861;51.966;5.672;2024-03-08T03:55:37;5.9;56.3
78571;SHT31;67861;51.966;5.672;2024-03-08T03:58:06;5.9;56.1
78571;SHT31;67861;51.966;5.672;2024-03-08T04:00:36;5.9;56.2
78571;SHT31;67861;51.966;5.672;2024-03-08T04:03:04;5.9;56.3
78571;SHT31;67861;51.966;5.672;2024-03-08T04:05:33;5.9;56.4
78571;SHT31;67861;51.966;5.672;2024-03-08T04:08:02;5.9;56.5
78571;SHT31;67861;51.966;5.672;2024-03-08T04:10:31;5.9;56.3
78571;SHT31;67861;51.966;5.672;2024-03-08T04:12:59;5.9;56.5
78571;SHT31;67861;51.966;5.672;2024-03-08T04:15:28;5.9;56.3
78571;SHT31;67861;51.966;5.672;2024-03-08T04:17:57;5.8;56.5
78571;SHT31;67861;51.966;5.672;2024-03-08T04:20:26;5.8;56.4
78571;SHT31;67861;51.966;5.672;2024-03-08T04:22:57;5.8;56.4
78571;SHT31;67861;51.966;5.672;2024-03-08T04:25:25;5.8;56.5
78571;SHT31;67861;51.966;5.672;2024-03-08T04:27:54;5.8;56.3
78571;SHT31;67861;51.966;5.672;2024-03-08T04:30:23;5.8;56.5
78571;SHT31;67861;51.966;5.672;2024-03-08T04:32:51;5.8;56.6
78571;SHT31;67861;51.966;5.672;2024-03-08T04:35:20;5.8;56.6
78571;SHT31;67861;51.966;5.672;2024-03-08T04:37:48;5.8;56.6
78571;SHT31;67861;51.966;5.672;2024-03-08T04:40:18;5.8;56.6
78571;SHT31;67861;51.966;5.672;2024-03-08T04:42:47;5.7;56.6
78571;SHT31;67861;51.966;5.672;2024-03-08T04:45:17;5.7;56.6
78571;SHT31;67861;51.966;5.672;2024-03-08T04:47:46;5.7;56.7
78571;SHT31;67861;51.966;5.672;2024-03-08T04:50:15;5.7;56.6
78571;SHT31;67861;51.966;5.672;2024-03-08T04:52:44;5.7;56.6
78571;SHT31;67861;51.966;5.672;2024-03-08T04:55:14;5.7;56.7
78571;SHT31;67861;51.966;5.672;2024-03-08T04:57:44;5.7;56.7
78571;SHT31;67861;51.966;5.672;2024-03-08T05:00:13;5.7;56.8
78571;SHT31;67861;51.966;5.672;2024-03-08T05:02:42;5.7;56.7
78571;SHT31;67861;51.966;5.672;2024-03-08T05:05:11;5.6;56.8
78571;SHT31;67861;51.966;5.672;2024-03-08T05:07:40;5.6;56.8
78571;SHT31;67861;51.966;5.672;2024-03-08T05:10:10;5.6;56.7
78571;SHT31;67861;51.966;5.672;2024-03-08T05:12:38;5.6;56.8
78571;SHT31;67861;51.966;5.672;2024-03-08T05:15:09;5.6;56.7
78571;SHT31;67861;51.966;5.672;2024-03-08T05:17:40;5.6;56.8
78571;SHT31;67861;51.966;5.672;2024-03-08T05:20:09;5.6;56.7
78571;SHT31;67861;51.966;5.672;2024-03-08T05:22:39;5.6;56.9
78571;SHT31;67861;51.966;5.672;2024-03-08T05:25:08;5.6;56.7
78571;SHT31;67861;51.966;5.672;2024-03-08T05:27:38;5.6;56.6
78571;SHT31;67861;51.966;5.672;2024-03-08T05:30:07;5.6;56.7
78571;SHT31;67861;51.966;5.672;2024-03-08T05:32:40;5.6;56.6
78571;SHT31;67861;51.966;5.672;2024-03-08T05:35:11;5.6;56.6
78571;SHT31;67861;51.966;5.672;2024-03-08T05:37:42;5.6;56.8
78571;SHT31;67861;51.966;5.672;2024-03-08T05:40:13;5.6;56.7
78571;SHT31;67861;51.966;5.672;2024-03-08T05:42:41;5.6;56.5
78571;SHT31;67861;51.966;5.672;2024-03-08T05:45:12;5.6;56.6
78571;SHT31;67861;51.966;5.672;2024-03-08T05:47:41;5.6;56.7
78571;SHT31;67861;51.966;5.672;2024-03-08T05:50:10;5.6;56.8
78571;SHT31;67861;51.966;5.672;2024-03-08T05:52:39;5.6;56.5
78571;SHT31;67861;51.966;5.672;2024-03-08T05:55:08;5.6;56.6
78571;SHT31;67861;51.966;5.672;2024-03-08T05:57:36;5.6;56.7
78571;SHT31;67861;51.966;5.672;2024-03-08T06:00:06;5.6;56.7
78571;SHT31;67861;51.966;5.672;2024-03-08T06:02:37;5.6;56.7
78571;SHT31;67861;51.966;5.672;2024-03-08T06:05:07;5.6;56.7
78571;SHT31;67861;51.966;5.672;2024-03-08T06:07:36;5.6;56.6
78571;SHT31;67861;51.966;5.672;2024-03-08T06:10:07;5.6;56.7
78571;SHT31;67861;51.966;5.672;2024-03-08T06:12:38;5.5;56.7
78571;SHT31;67861;51.966;5.672;2024-03-08T06:15:08;5.5;56.7
78571;SHT31;67861;51.966;5.672;2024-03-08T06:17:41;5.5;56.7
78571;SHT31;67861;51.966;5.672;2024-03-08T06:20:10;5.5;56.8
78571;SHT31;67861;51.966;5.672;2024-03-08T06:22:40;5.5;56.8
78571;SHT31;67861;51.966;5.672;2024-03-08T06:25:09;5.5;56.9
78571;SHT31;67861;51.966;5.672;2024-03-08T06:27:40;5.5;56.8
78571;SHT31;67861;51.966;5.672;2024-03-08T06:30:10;5.5;56.8
78571;SHT31;67861;51.966;5.672;2024-03-08T06:32:39;5.5;57.0
78571;SHT31;67861;51.966;5.672;2024-03-08T06:35:09;5.5;56.9
78571;SHT31;67861;51.966;5.672;2024-03-08T06:37:38;5.5;56.9
78571;SHT31;67861;51.966;5.672;2024-03-08T06:40:09;5.5;57.0
78571;SHT31;67861;51.966;5.672;2024-03-08T06:42:40;5.5;57.2
78571;SHT31;67861;51.966;5.672;2024-03-08T06:45:09;5.5;57.6
78571;SHT31;67861;51.966;5.672;2024-03-08T06:47:38;5.5;57.2
78571;SHT31;67861;51.966;5.672;2024-03-08T06:50:10;5.5;57.1
78571;SHT31;67861;51.966;5.672;2024-03-08T06:52:41;5.5;57.4
78571;SHT31;67861;51.966;5.672;2024-03-08T06:55:10;5.5;57.5
78571;SHT31;67861;51.966;5.672;2024-03-08T06:57:39;5.6;57.0
78571;SHT31;67861;51.966;5.672;2024-03-08T07:00:09;5.6;57.4
78571;SHT31;67861;51.966;5.672;2024-03-08T07:02:43;5.7;57.0
78571;SHT31;67861;51.966;5.672;2024-03-08T07:05:12;5.7;56.8
78571;SHT31;67861;51.966;5.672;2024-03-08T07:07:43;5.8;56.9
78571;SHT31;67861;51.966;5.672;2024-03-08T07:10:11;5.8;56.3
78571;SHT31;67861;51.966;5.672;2024-03-08T07:12:41;5.9;56.3
78571;SHT31;67861;51.966;5.672;2024-03-08T07:15:12;5.9;56.1
78571;SHT31;67861;51.966;5.672;2024-03-08T07:17:41;5.9;56.0
78571;SHT31;67861;51.966;5.672;2024-03-08T07:20:11;5.9;56.3
78571;SHT31;67861;51.966;5.672;2024-03-08T07:22:40;5.9;56.5
78571;SHT31;67861;51.966;5.672;2024-03-08T07:25:09;6.0;56.3
78571;SHT31;67861;51.966;5.672;2024-03-08T07:27:49;6.0;56.3
78571;SHT31;67861;51.966;5.672;2024-03-08T07:30:18;6.0;56.3
78571;SHT31;67861;51.966;5.672;2024-03-08T07:33:27;6.0;55.8
78571;SHT31;67861;51.966;5.672;2024-03-08T07:35:55;6.0;56.1
78571;SHT31;67861;51.966;5.672;2024-03-08T07:38:24;6.1;55.9
78571;SHT31;67861;51.966;5.672;2024-03-08T07:40:52;6.1;56.0
78571;SHT31;67861;51.966;5.672;2024-03-08T07:43:21;6.1;55.7
78571;SHT31;67861;51.966;5.672;2024-03-08T07:45:49;6.1;55.8
78571;SHT31;67861;51.966;5.672;2024-03-08T07:48:19;6.1;56.0
78571;SHT31;67861;51.966;5.672;2024-03-08T07:50:49;6.1;56.4
78571;SHT31;67861;51.966;5.672;2024-03-08T07:53:19;6.1;56.2
78571;SHT31;67861;51.966;5.672;2024-03-08T07:55:48;6.2;56.5
78571;SHT31;67861;51.966;5.672;2024-03-08T07:58:18;6.2;56.0
78571;SHT31;67861;51.966;5.672;2024-03-08T08:00:47;6.3;56.3
78571;SHT31;67861;51.966;5.672;2024-03-08T08:03:16;6.3;55.5
78571;SHT31;67861;51.966;5.672;2024-03-08T08:05:47;6.3;55.7
78571;SHT31;67861;51.966;5.672;2024-03-08T08:08:16;6.3;55.7
78571;SHT31;67861;51.966;5.672;2024-03-08T08:10:44;6.4;55.6
78571;SHT31;67861;51.966;5.672;2024-03-08T08:13:13;6.4;55.7
78571;SHT31;67861;51.966;5.672;2024-03-08T08:15:42;6.4;55.2
78571;SHT31;67861;51.966;5.672;2024-03-08T08:18:10;6.4;55.2
78571;SHT31;67861;51.966;5.672;2024-03-08T08:20:40;6.5;55.3
78571;SHT31;67861;51.966;5.672;2024-03-08T08:23:09;6.5;55.2
78571;SHT31;67861;51.966;5.672;2024-03-08T08:25:38;6.5;55.2
78571;SHT31;67861;51.966;5.672;2024-03-08T08:28:07;6.6;55.5
78571;SHT31;67861;51.966;5.672;2024-03-08T08:30:35;6.6;55.3
78571;SHT31;67861;51.966;5.672;2024-03-08T08:33:06;6.7;55.0
78571;SHT31;67861;51.966;5.672;2024-03-08T08:35:35;6.7;55.5
78571;SHT31;67861;51.966;5.672;2024-03-08T08:38:04;6.7;55.3
78571;SHT31;67861;51.966;5.672;2024-03-08T08:40:34;6.8;55.1
78571;SHT31;67861;51.966;5.672;2024-03-08T08:43:03;6.8;54.4
78571;SHT31;67861;51.966;5.672;2024-03-08T08:45:33;6.8;54.8
78571;SHT31;67861;51.966;5.672;2024-03-08T08:48:02;6.9;55.5
78571;SHT31;67861;51.966;5.672;2024-03-08T08:50:31;6.9;55.0
78571;SHT31;67861;51.966;5.672;2024-03-08T08:53:00;7.0;54.5
78571;SHT31;67861;51.966;5.672;2024-03-08T08:55:30;7.0;54.7
78571;SHT31;67861;51.966;5.672;2024-03-08T08:57:59;7.1;54.8
78571;SHT31;67861;51.966;5.672;2024-03-08T09:00:29;7.2;54.3
78571;SHT31;67861;51.966;5.672;2024-03-08T09:02:59;7.2;54.5
78571;SHT31;67861;51.966;5.672;2024-03-08T09:05:30;7.3;55.2
78571;SHT31;67861;51.966;5.672;2024-03-08T09:08:02;7.3;54.9
78571;SHT31;67861;51.966;5.672;2024-03-08T09:10:30;7.4;54.7
78571;SHT31;67861;51.966;5.672;2024-03-08T09:13:00;7.4;54.6
78571;SHT31;67861;51.966;5.672;2024-03-08T09:15:30;7.5;54.5
78571;SHT31;67861;51.966;5.672;2024-03-08T09:17:59;7.6;54.6
78571;SHT31;67861;51.966;5.672;2024-03-08T09:20:27;7.7;54.8
78571;SHT31;67861;51.966;5.672;2024-03-08T09:22:58;7.8;55.1
78571;SHT31;67861;51.966;5.672;2024-03-08T09:25:26;7.9;55.1
78571;SHT31;67861;51.966;5.672;2024-03-08T09:27:55;8.0;54.8
78571;SHT31;67861;51.966;5.672;2024-03-08T09:30:24;8.1;54.5
78571;SHT31;67861;51.966;5.672;2024-03-08T09:32:52;8.2;54.6
78571;SHT31;67861;51.966;5.672;2024-03-08T09:35:21;8.3;54.5
78571;SHT31;67861;51.966;5.672;2024-03-08T09:37:49;8.4;54.0
78571;SHT31;67861;51.966;5.672;2024-03-08T09:40:18;8.5;53.7
78571;SHT31;67861;51.966;5.672;2024-03-08T09:42:48;8.6;53.5
78571;SHT31;67861;51.966;5.672;2024-03-08T09:45:18;8.8;53.4
78571;SHT31;67861;51.966;5.672;2024-03-08T09:47:48;8.9;52.8
78571;SHT31;67861;51.966;5.672;2024-03-08T09:50:17;9.0;53.0
78571;SHT31;67861;51.966;5.672;2024-03-08T09:52:48;9.1;52.3
78571;SHT31;67861;51.966;5.672;2024-03-08T09:55:22;9.2;52.7
78571;SHT31;67861;51.966;5.672;2024-03-08T09:57:51;9.3;51.6
78571;SHT31;67861;51.966;5.672;2024-03-08T10:00:49;9.5;51.7
78571;SHT31;67861;51.966;5.672;2024-03-08T10:03:21;9.6;50.8
78571;SHT31;67861;51.966;5.672;2024-03-08T10:05:50;9.8;50.6
78571;SHT31;67861;51.966;5.672;2024-03-08T10:08:18;9.9;50.2
78571;SHT31;67861;51.966;5.672;2024-03-08T10:10:47;10.0;49.7
78571;SHT31;67861;51.966;5.672;2024-03-08T10:13:16;10.2;50.7
78571;SHT31;67861;51.966;5.672;2024-03-08T10:15:46;10.3;49.7
78571;SHT31;67861;51.966;5.672;2024-03-08T10:18:16;10.4;49.9
78571;SHT31;67861;51.966;5.672;2024-03-08T10:20:45;10.5;48.8
78571;SHT31;67861;51.966;5.672;2024-03-08T10:23:15;10.6;49.1
78571;SHT31;67861;51.966;5.672;2024-03-08T10:25:44;10.7;49.3
78571;SHT31;67861;51.966;5.672;2024-03-08T10:28:12;10.9;49.3
78571;SHT31;67861;51.966;5.672;2024-03-08T10:30:48;11.0;48.0
78571;SHT31;67861;51.966;5.672;2024-03-08T10:33:17;11.1;47.8
78571;SHT31;67861;51.966;5.672;2024-03-08T10:35:45;11.2;47.3
78571;SHT31;67861;51.966;5.672;2024-03-08T10:38:18;11.3;46.9
78571;SHT31;67861;51.966;5.672;2024-03-08T10:40:48;11.4;46.5
78571;SHT31;67861;51.966;5.672;2024-03-08T10:43:23;11.5;45.6
78571;SHT31;67861;51.966;5.672;2024-03-08T10:46:04;11.6;47.0
78571;SHT31;67861;51.966;5.672;2024-03-08T10:48:42;11.7;45.8
78571;SHT31;67861;51.966;5.672;2024-03-08T10:51:12;11.8;45.9
78571;SHT31;67861;51.966;5.672;2024-03-08T10:53:41;11.8;45.7
78571;SHT31;67861;51.966;5.672;2024-03-08T10:56:10;11.9;46.3
78571;SHT31;67861;51.966;5.672;2024-03-08T10:58:41;12.0;46.0
78571;SHT31;67861;51.966;5.672;2024-03-08T11:01:13;12.0;45.8
78571;SHT31;67861;51.966;5.672;2024-03-08T11:03:48;12.1;46.1
78571;SHT31;67861;51.966;5.672;2024-03-08T11:06:23;12.2;44.9
78571;SHT31;67861;51.966;5.672;2024-03-08T11:08:56;12.3;43.7
78571;SHT31;67861;51.966;5.672;2024-03-08T11:11:26;12.4;44.5
78571;SHT31;67861;51.966;5.672;2024-03-08T11:14:01;12.5;44.7
78571;SHT31;67861;51.966;5.672;2024-03-08T11:16:43;12.5;43.9
78571;SHT31;67861;51.966;5.672;2024-03-08T11:19:26;12.6;43.7
78571;SHT31;67861;51.966;5.672;2024-03-08T11:22:03;12.7;43.8
78571;SHT31;67861;51.966;5.672;2024-03-08T11:24:40;12.8;44.0
78571;SHT31;67861;51.966;5.672;2024-03-08T11:27:09;12.8;43.1
78571;SHT31;67861;51.966;5.672;2024-03-08T11:29:41;12.9;43.1
78571;SHT31;67861;51.966;5.672;2024-03-08T11:32:10;12.9;43.0
78571;SHT31;67861;51.966;5.672;2024-03-08T11:34:42;13.0;42.4
78571;SHT31;67861;51.966;5.672;2024-03-08T11:37:15;13.1;42.3
78571;SHT31;67861;51.966;5.672;2024-03-08T11:39:49;13.1;42.9
78571;SHT31;67861;51.966;5.672;2024-03-08T11:42:19;13.2;42.6
78571;SHT31;67861;51.966;5.672;2024-03-08T11:44:50;13.2;42.5
78571;SHT31;67861;51.966;5.672;2024-03-08T11:47:20;13.3;41.7
78571;SHT31;67861;51.966;5.672;2024-03-08T11:49:49;13.4;42.0
78571;SHT31;67861;51.966;5.672;2024-03-08T11:52:19;13.4;42.4
78571;SHT31;67861;51.966;5.672;2024-03-08T11:54:53;13.5;41.7
78571;SHT31;67861;51.966;5.672;2024-03-08T11:57:24;13.6;41.2
78571;SHT31;67861;51.966;5.672;2024-03-08T11:59:54;13.6;41.0
78571;SHT31;67861;51.966;5.672;2024-03-08T12:02:24;13.6;41.2
78571;SHT31;67861;51.966;5.672;2024-03-08T12:04:58;13.7;40.6
78571;SHT31;67861;51.966;5.672;2024-03-08T12:07:29;13.7;41.4
78571;SHT31;67861;51.966;5.672;2024-03-08T12:10:17;13.8;40.4
78571;SHT31;67861;51.966;5.672;2024-03-08T12:12:49;13.8;40.4
78571;SHT31;67861;51.966;5.672;2024-03-08T12:15:20;13.8;40.2
78571;SHT31;67861;51.966;5.672;2024-03-08T12:17:50;13.8;40.4
78571;SHT31;67861;51.966;5.672;2024-03-08T12:20:21;13.8;40.1
78571;SHT31;67861;51.966;5.672;2024-03-08T12:22:52;13.9;39.0
78571;SHT31;67861;51.966;5.672;2024-03-08T12:25:26;13.9;39.9
78571;SHT31;67861;51.966;5.672;2024-03-08T12:28:10;13.9;39.4
78571;SHT31;67861;51.966;5.672;2024-03-08T12:30:48;13.9;40.2
78571;SHT31;67861;51.966;5.672;2024-03-08T12:33:17;14.0;41.0
78571;SHT31;67861;51.966;5.672;2024-03-08T12:35:53;14.0;39.4
78571;SHT31;67861;51.966;5.672;2024-03-08T12:38:22;14.0;39.8
78571;SHT31;67861;51.966;5.672;2024-03-08T12:40:55;14.0;39.7
78571;SHT31;67861;51.966;5.672;2024-03-08T12:43:23;14.0;38.8
78571;SHT31;67861;51.966;5.672;2024-03-08T12:45:54;14.0;39.0
78571;SHT31;67861;51.966;5.672;2024-03-08T12:48:22;14.0;39.8
78571;SHT31;67861;51.966;5.672;2024-03-08T12:50:51;14.1;40.0
78571;SHT31;67861;51.966;5.672;2024-03-08T12:53:21;14.1;38.9
78571;SHT31;67861;51.966;5.672;2024-03-08T12:55:51;14.1;39.5
78571;SHT31;67861;51.966;5.672;2024-03-08T12:58:22;14.1;38.6
78571;SHT31;67861;51.966;5.672;2024-03-08T13:00:52;14.1;38.3
78571;SHT31;67861;51.966;5.672;2024-03-08T13:03:21;14.1;40.0
78571;SHT31;67861;51.966;5.672;2024-03-08T13:05:49;14.1;40.9
78571;SHT31;67861;51.966;5.672;2024-03-08T13:08:20;14.1;39.2
78571;SHT31;67861;51.966;5.672;2024-03-08T13:10:51;14.1;39.4
78571;SHT31;67861;51.966;5.672;2024-03-08T13:13:20;14.1;41.1
78571;SHT31;67861;51.966;5.672;2024-03-08T13:15:49;14.1;40.0
78571;SHT31;67861;51.966;5.672;2024-03-08T13:18:17;14.1;40.0
78571;SHT31;67861;51.966;5.672;2024-03-08T13:20:46;14.2;39.4
78571;SHT31;67861;51.966;5.672;2024-03-08T13:23:18;14.2;40.5
78571;SHT31;67861;51.966;5.672;2024-03-08T13:25:47;14.2;39.2
78571;SHT31;67861;51.966;5.672;2024-03-08T13:28:15;14.2;40.9
78571;SHT31;67861;51.966;5.672;2024-03-08T13:30:49;14.3;39.8
78571;SHT31;67861;51.966;5.672;2024-03-08T13:33:17;14.3;40.0
78571;SHT31;67861;51.966;5.672;2024-03-08T13:35:46;14.3;41.0
78571;SHT31;67861;51.966;5.672;2024-03-08T13:38:16;14.4;40.2
78571;SHT31;67861;51.966;5.672;2024-03-08T13:40:46;14.4;39.4
78571;SHT31;67861;51.966;5.672;2024-03-08T13:43:16;14.4;38.7
78571;SHT31;67861;51.966;5.672;2024-03-08T13:45:46;14.5;39.3
78571;SHT31;67861;51.966;5.672;2024-03-08T13:48:14;14.5;39.2
78571;SHT31;67861;51.966;5.672;2024-03-08T13:50:42;14.5;38.9
78571;SHT31;67861;51.966;5.672;2024-03-08T13:53:11;14.5;39.0
78571;SHT31;67861;51.966;5.672;2024-03-08T13:55:40;14.5;40.1
78571;SHT31;67861;51.966;5.672;2024-03-08T13:58:09;14.5;39.7
78571;SHT31;67861;51.966;5.672;2024-03-08T14:00:40;14.5;39.3
78571;SHT31;67861;51.966;5.672;2024-03-08T14:03:10;14.5;38.8
78571;SHT31;67861;51.966;5.672;2024-03-08T14:05:40;14.5;39.6
78571;SHT31;67861;51.966;5.672;2024-03-08T14:08:09;14.5;40.8
78571;SHT31;67861;51.966;5.672;2024-03-08T14:10:38;14.6;39.8
78571;SHT31;67861;51.966;5.672;2024-03-08T14:13:08;14.6;39.2
78571;SHT31;67861;51.966;5.672;2024-03-08T14:15:38;14.6;40.0
78571;SHT31;67861;51.966;5.672;2024-03-08T14:18:08;14.7;39.6
78571;SHT31;67861;51.966;5.672;2024-03-08T14:20:39;14.7;39.7
78571;SHT31;67861;51.966;5.672;2024-03-08T14:23:08;14.7;39.4
78571;SHT31;67861;51.966;5.672;2024-03-08T14:25:39;14.8;39.2
78571;SHT31;67861;51.966;5.672;2024-03-08T14:28:07;14.8;39.1
78571;SHT31;67861;51.966;5.672;2024-03-08T14:30:36;14.8;38.2
78571;SHT31;67861;51.966;5.672;2024-03-08T14:33:08;14.9;37.9
78571;SHT31;67861;51.966;5.672;2024-03-08T14:35:37;14.9;38.5
78571;SHT31;67861;51.966;5.672;2024-03-08T14:38:06;14.9;38.7
78571;SHT31;67861;51.966;5.672;2024-03-08T14:40:37;14.9;39.1
78571;SHT31;67861;51.966;5.672;2024-03-08T14:43:06;14.9;38.8
78571;SHT31;67861;51.966;5.672;2024-03-08T14:45:34;14.9;38.3
78571;SHT31;67861;51.966;5.672;2024-03-08T14:48:05;14.9;37.9
78571;SHT31;67861;51.966;5.672;2024-03-08T14:50:33;14.9;37.5
78571;SHT31;67861;51.966;5.672;2024-03-08T14:53:03;14.9;38.2
78571;SHT31;67861;51.966;5.672;2024-03-08T14:55:32;14.9;38.4
78571;SHT31;67861;51.966;5.672;2024-03-08T14:58:01;14.9;39.3
78571;SHT31;67861;51.966;5.672;2024-03-08T15:00:30;14.9;38.6
78571;SHT31;67861;51.966;5.672;2024-03-08T15:03:04;14.9;38.8
78571;SHT31;67861;51.966;5.672;2024-03-08T15:05:33;14.9;38.2
78571;SHT31;67861;51.966;5.672;2024-03-08T15:08:04;14.9;38.6
78571;SHT31;67861;51.966;5.672;2024-03-08T15:10:35;14.9;38.4
78571;SHT31;67861;51.966;5.672;2024-03-08T15:13:06;14.9;37.6
78571;SHT31;67861;51.966;5.672;2024-03-08T15:15:40;14.9;38.8
78571;SHT31;67861;51.966;5.672;2024-03-08T15:18:09;14.9;38.2
78571;SHT31;67861;51.966;5.672;2024-03-08T15:20:38;14.9;38.1
78571;SHT31;67861;51.966;5.672;2024-03-08T15:23:09;14.9;39.2
78571;SHT31;67861;51.966;5.672;2024-03-08T15:25:38;14.9;38.5
78571;SHT31;67861;51.966;5.672;2024-03-08T15:28:08;14.9;38.8
78571;SHT31;67861;51.966;5.672;2024-03-08T15:30:41;14.9;39.6
78571;SHT31;67861;51.966;5.672;2024-03-08T15:33:13;14.9;38.2
78571;SHT31;67861;51.966;5.672;2024-03-08T15:35:48;14.9;38.1
78571;SHT31;67861;51.966;5.672;2024-03-08T15:38:22;14.9;38.4
78571;SHT31;67861;51.966;5.672;2024-03-08T15:40:51;14.8;38.0
78571;SHT31;67861;51.966;5.672;2024-03-08T15:43:21;14.8;38.3
78571;SHT31;67861;51.966;5.672;2024-03-08T15:45:51;14.8;38.5
78571;SHT31;67861;51.966;5.672;2024-03-08T15:48:21;14.8;38.6
78571;SHT31;67861;51.966;5.672;2024-03-08T15:50:51;14.7;38.7
78571;SHT31;67861;51.966;5.672;2024-03-08T15:53:20;14.7;38.6
78571;SHT31;67861;51.966;5.672;2024-03-08T15:55:52;14.7;38.2
78571;SHT31;67861;51.966;5.672;2024-03-08T15:58:20;14.7;38.8
78571;SHT31;67861;51.966;5.672;2024-03-08T16:00:49;14.6;38.9
78571;SHT31;67861;51.966;5.672;2024-03-08T16:03:19;14.6;39.3
78571;SHT31;67861;51.966;5.672;2024-03-08T16:05:48;14.6;39.4
78571;SHT31;67861;51.966;5.672;2024-03-08T16:08:18;14.5;39.2
78571;SHT31;67861;51.966;5.672;2024-03-08T16:10:51;14.5;38.3
78571;SHT31;67861;51.966;5.672;2024-03-08T16:13:22;14.4;38.9
78571;SHT31;67861;51.966;5.672;2024-03-08T16:15:52;14.4;38.5
78571;SHT31;67861;51.966;5.672;2024-03-08T16:18:25;14.4;39.0
78571;SHT31;67861;51.966;5.672;2024-03-08T16:20:57;14.3;39.1
78571;SHT31;67861;51.966;5.672;2024-03-08T16:23:26;14.3;39.3
78571;SHT31;67861;51.966;5.672;2024-03-08T16:25:55;14.2;38.7
78571;SHT31;67861;51.966;5.672;2024-03-08T16:28:23;14.2;39.1
78571;SHT31;67861;51.966;5.672;2024-03-08T16:30:55;14.1;39.3